createdAt,value
2022-08-04T00:01:41.352Z,15.90
2022-08-04T00:04:48.364Z,16.00
2022-08-04T00:07:44.101Z,16.10
2022-08-04T00:10:16.481Z,16.10
2022-08-04T00:12:48.437Z,16.20
2022-08-04T00:15:17.699Z,16.20
2022-08-04T00:17:54.037Z,16.10
2022-08-04T00:20:24.564Z,16.10
2022-08-04T00:22:52.979Z,16.00
2022-08-04T00:25:21.035Z,15.90
2022-08-04T00:27:49.363Z,15.80
2022-08-04T00:30:17.572Z,15.90
2022-08-04T00:32:45.291Z,15.90
2022-08-04T00:35:17.317Z,16.00
2022-08-04T00:37:46.071Z,16.00
2022-08-04T00:40:36.262Z,16.00
2022-08-04T00:43:42.636Z,16.10
2022-08-04T00:46:47.480Z,16.10
2022-08-04T00:49:23.292Z,16.10
2022-08-04T00:52:32.120Z,15.90
2022-08-04T00:55:11.023Z,15.90
2022-08-04T00:58:02.102Z,16.00
2022-08-04T01:00:38.115Z,16.00
2022-08-04T01:03:42.487Z,16.10
2022-08-04T01:06:21.822Z,16.20
2022-08-04T01:09:21.149Z,16.20
2022-08-04T01:12:19.260Z,16.10
2022-08-04T01:15:04.544Z,16.10
2022-08-04T01:17:58.906Z,16.10
2022-08-04T01:20:29.903Z,16.10
2022-08-04T01:23:25.492Z,16.00
2022-08-04T01:26:42.460Z,15.90
2022-08-04T01:29:15.887Z,15.80
2022-08-04T01:32:03.988Z,15.80
2022-08-04T01:34:51.197Z,15.80
2022-08-04T01:37:35.977Z,15.70
2022-08-04T01:40:07.332Z,15.70
2022-08-04T01:42:37.071Z,15.60
2022-08-04T01:45:10.577Z,15.70
2022-08-04T01:47:42.613Z,15.70
2022-08-04T01:50:12.434Z,15.80
2022-08-04T01:52:42.324Z,15.90
2022-08-04T01:55:12.039Z,16.00
2022-08-04T01:57:44.959Z,16.00
2022-08-04T02:00:16.441Z,16.10
2022-08-04T02:02:45.653Z,16.10
2022-08-04T02:05:18.622Z,16.10
2022-08-04T02:07:50.643Z,16.20
2022-08-04T02:10:55.418Z,16.10
2022-08-04T02:13:44.243Z,16.00
2022-08-04T02:16:35.956Z,16.00
2022-08-04T02:19:46.264Z,15.90
2022-08-04T02:22:18.872Z,15.90
2022-08-04T02:25:08.029Z,15.80
2022-08-04T02:27:59.622Z,15.70
2022-08-04T02:30:34.375Z,15.70
2022-08-04T02:33:03.948Z,15.70
2022-08-04T02:35:35.624Z,15.60
2022-08-04T02:38:35.311Z,15.60
2022-08-04T02:41:04.713Z,15.50
2022-08-04T02:43:51.265Z,15.50
2022-08-04T02:46:22.358Z,15.50
2022-08-04T02:48:53.107Z,15.50
2022-08-04T02:51:55.109Z,15.40
2022-08-04T02:54:31.729Z,15.30
2022-08-04T02:57:02.592Z,15.30
2022-08-04T02:59:53.251Z,15.30
2022-08-04T03:02:31.140Z,15.30
2022-08-04T03:05:07.710Z,15.20
2022-08-04T03:08:08.374Z,15.20
2022-08-04T03:13:57.314Z,15.20
2022-08-04T03:16:38.723Z,15.20
2022-08-04T03:19:45.437Z,15.10
2022-08-04T03:22:32.215Z,15.10
2022-08-04T03:25:36.788Z,15.10
2022-08-04T03:28:37.742Z,15.10
2022-08-04T03:31:42.135Z,15.10
2022-08-04T03:34:27.157Z,15.20
2022-08-04T03:37:34.512Z,15.30
2022-08-04T03:40:33.159Z,15.30
2022-08-04T03:43:58.699Z,15.50
2022-08-04T03:46:35.447Z,15.60
2022-08-04T03:49:40.730Z,15.80
2022-08-04T03:52:27.178Z,15.90
2022-08-04T03:55:31.830Z,15.90
2022-08-04T03:58:30.572Z,16.00
2022-08-04T04:01:29.539Z,16.00
2022-08-04T04:05:00.985Z,16.10
2022-08-04T04:07:59.773Z,16.20
2022-08-04T04:10:47.132Z,16.30
2022-08-04T04:13:45.114Z,16.30
2022-08-04T04:16:42.963Z,16.30
2022-08-04T04:19:34.180Z,16.20
2022-08-04T04:22:38.194Z,16.20
2022-08-04T04:25:09.246Z,16.10
2022-08-04T04:28:44.598Z,16.00
2022-08-04T04:31:36.091Z,16.00
2022-08-04T04:34:21.098Z,16.10
2022-08-04T04:37:14.616Z,16.20
2022-08-04T04:40:42.967Z,16.30
2022-08-04T04:43:15.706Z,16.40
2022-08-04T04:45:58.378Z,16.50
2022-08-04T04:48:45.755Z,16.60
2022-08-04T04:51:36.114Z,16.70
2022-08-04T04:54:47.961Z,16.80
2022-08-04T04:57:20.817Z,17.00
2022-08-04T05:00:10.638Z,17.00
2022-08-04T05:03:15.155Z,17.00
2022-08-04T05:06:07.829Z,17.10
2022-08-04T05:09:08.400Z,17.10
2022-08-04T05:11:59.027Z,17.20
2022-08-04T05:14:47.702Z,17.40
2022-08-04T05:17:26.307Z,17.50
2022-08-04T05:19:59.559Z,17.50
2022-08-04T05:22:37.950Z,17.70
2022-08-04T05:25:27.897Z,17.70
2022-08-04T05:28:15.246Z,17.90
2022-08-04T05:30:49.175Z,18.00
2022-08-04T05:33:23.160Z,18.10
2022-08-04T05:36:18.619Z,18.30
2022-08-04T05:38:51.568Z,18.50
2022-08-04T05:41:20.828Z,18.80
2022-08-04T05:43:50.009Z,19.20
2022-08-04T05:46:18.417Z,19.50
2022-08-04T05:48:47.647Z,19.70
2022-08-04T05:51:18.996Z,20.00
2022-08-04T05:53:48.061Z,20.20
2022-08-04T05:56:16.451Z,20.40
2022-08-04T05:58:46.425Z,20.60
2022-08-04T06:01:17.227Z,20.70
2022-08-04T06:03:47.376Z,20.90
2022-08-04T06:06:15.261Z,21.10
2022-08-04T06:08:43.475Z,21.30
2022-08-04T06:11:13.325Z,21.30
2022-08-04T06:14:13.124Z,21.40
2022-08-04T06:16:46.018Z,21.40
2022-08-04T06:20:03.139Z,21.60
2022-08-04T06:22:12.305Z,21.80
2022-08-04T06:24:41.965Z,22.00
2022-08-04T06:27:09.968Z,22.10
2022-08-04T06:29:41.208Z,22.20
2022-08-04T06:32:40.007Z,22.20
2022-08-04T06:35:10.972Z,22.40
2022-08-04T06:37:42.058Z,22.50
2022-08-04T06:40:30.107Z,22.60
2022-08-04T06:43:02.906Z,22.70
2022-08-04T06:45:31.922Z,22.70
2022-08-04T06:48:02.029Z,22.90
2022-08-04T06:51:26.758Z,23.10
2022-08-04T06:53:21.970Z,23.20
2022-08-04T06:55:51.005Z,23.30
2022-08-04T06:58:20.919Z,23.50
2022-08-04T07:00:50.986Z,23.60
2022-08-04T07:03:19.828Z,23.70
2022-08-04T07:05:51.324Z,23.80
2022-08-04T07:08:19.574Z,24.00
2022-08-04T07:10:49.140Z,24.30
2022-08-04T07:13:18.276Z,24.40
2022-08-04T07:15:48.415Z,24.60
2022-08-04T07:18:17.135Z,24.80
2022-08-04T07:20:46.942Z,25.00
2022-08-04T07:23:21.374Z,25.30
2022-08-04T07:26:01.124Z,25.70
2022-08-04T07:28:42.192Z,26.50
2022-08-04T07:31:33.511Z,27.70
2022-08-04T07:34:17.458Z,29.20
2022-08-04T07:36:55.986Z,30.70
2022-08-04T07:39:28.438Z,31.80
2022-08-04T07:42:05.313Z,32.80
2022-08-04T07:44:35.175Z,33.00
2022-08-04T07:47:07.278Z,33.60
2022-08-04T07:49:56.078Z,34.40
2022-08-04T07:52:24.607Z,35.50
2022-08-04T07:54:52.613Z,36.50
2022-08-04T07:57:40.970Z,37.00
2022-08-04T08:00:10.320Z,37.70
2022-08-04T08:02:43.133Z,37.90
2022-08-04T08:05:14.057Z,38.00
2022-08-04T08:07:50.382Z,37.90
2022-08-04T08:10:21.996Z,37.30
2022-08-04T08:12:52.161Z,37.50
2022-08-04T08:15:20.604Z,37.40
2022-08-04T08:17:58.587Z,37.40
2022-08-04T08:20:32.329Z,37.10
2022-08-04T08:23:02.749Z,37.40
2022-08-04T08:25:33.902Z,37.10
2022-08-04T08:28:04.377Z,37.40
2022-08-04T08:30:34.020Z,37.80
2022-08-04T08:33:07.808Z,37.80
2022-08-04T08:35:53.169Z,38.40
2022-08-04T08:38:34.876Z,38.10
2022-08-04T08:41:08.534Z,37.90
2022-08-04T08:44:06.228Z,38.20
2022-08-04T08:47:21.239Z,38.40
2022-08-04T08:50:18.322Z,38.40
2022-08-04T08:53:13.041Z,38.60
2022-08-04T08:56:07.678Z,38.80
2022-08-04T08:58:43.528Z,39.20
2022-08-04T09:01:35.292Z,38.90
2022-08-04T09:04:03.075Z,39.00
2022-08-04T09:07:07.121Z,39.80
2022-08-04T09:09:56.083Z,39.20
2022-08-04T09:12:39.928Z,39.00
2022-08-04T09:15:17.130Z,38.70
2022-08-04T09:17:59.213Z,38.80
2022-08-04T09:20:49.175Z,38.20
2022-08-04T09:23:20.203Z,38.10
2022-08-04T09:26:24.727Z,38.40
2022-08-04T09:29:07.276Z,37.80
2022-08-04T09:32:06.651Z,37.70
2022-08-04T09:35:14.969Z,37.60
2022-08-04T09:38:04.872Z,37.80
2022-08-04T09:40:55.293Z,37.60
2022-08-04T09:43:58.821Z,37.60
2022-08-04T09:46:51.281Z,37.80
2022-08-04T09:49:38.905Z,38.10
2022-08-04T09:52:40.454Z,38.20
2022-08-04T09:55:53.431Z,38.30
2022-08-04T09:58:41.770Z,39.20
2022-08-04T10:01:16.784Z,39.30
2022-08-04T10:03:53.437Z,39.20
2022-08-04T10:06:42.289Z,39.00
2022-08-04T10:09:34.789Z,39.20
2022-08-04T10:12:07.767Z,38.90
2022-08-04T10:14:54.192Z,37.90
2022-08-04T10:17:27.670Z,38.10
2022-08-04T10:20:08.522Z,38.30
2022-08-04T10:23:09.269Z,38.30
2022-08-04T10:26:24.717Z,38.20
2022-08-04T10:29:09.851Z,39.00
2022-08-04T10:31:47.015Z,39.40
2022-08-04T10:34:21.866Z,39.50
2022-08-04T10:37:22.183Z,39.60
2022-08-04T10:40:46.991Z,39.60
2022-08-04T10:43:33.319Z,39.40
2022-08-04T10:46:07.486Z,39.80
2022-08-04T10:49:11.190Z,40.50
2022-08-04T10:51:58.543Z,40.60
2022-08-04T10:55:04.299Z,40.90
2022-08-04T10:57:50.402Z,41.10
2022-08-04T11:00:27.291Z,41.40
2022-08-04T11:03:20.610Z,41.00
2022-08-04T11:05:57.916Z,41.00
2022-08-04T11:08:29.764Z,41.20
2022-08-04T11:11:18.748Z,41.30
2022-08-04T11:13:52.941Z,41.20
2022-08-04T11:16:29.389Z,40.20
2022-08-04T11:19:44.661Z,38.70
2022-08-04T11:22:24.441Z,38.70
2022-08-04T11:25:03.754Z,39.00
2022-08-04T11:27:51.098Z,39.40
2022-08-04T11:30:20.169Z,39.80
2022-08-04T11:33:22.069Z,39.30
2022-08-04T11:36:01.168Z,40.20
2022-08-04T11:38:52.994Z,40.00
2022-08-04T11:41:45.068Z,39.40
2022-08-04T11:44:23.874Z,39.40
2022-08-04T11:46:56.936Z,40.40
2022-08-04T11:49:57.561Z,41.90
2022-08-04T11:52:28.601Z,41.40
2022-08-04T11:54:59.567Z,40.20
2022-08-04T11:57:36.048Z,40.40
2022-08-04T12:00:10.911Z,40.80
2022-08-04T12:03:06.868Z,41.20
2022-08-04T12:05:59.485Z,40.50
2022-08-04T12:08:45.734Z,40.70
2022-08-04T12:11:47.330Z,41.00
2022-08-04T12:14:49.712Z,41.10
2022-08-04T12:17:36.349Z,41.10
2022-08-04T12:20:31.995Z,41.40
2022-08-04T12:23:18.327Z,40.60
2022-08-04T12:25:53.791Z,40.60
2022-08-04T12:29:06.906Z,41.00
2022-08-04T12:31:45.216Z,41.50
2022-08-04T12:34:55.827Z,40.60
2022-08-04T12:37:41.223Z,40.40
2022-08-04T12:40:27.586Z,40.10
2022-08-04T12:43:10.642Z,39.70
2022-08-04T12:45:48.947Z,38.60
2022-08-04T12:48:21.098Z,38.80
2022-08-04T12:50:53.908Z,39.50
2022-08-04T12:53:32.052Z,39.40
2022-08-04T12:56:02.958Z,39.90
2022-08-04T12:58:43.487Z,39.70
2022-08-04T13:02:08.144Z,39.30
2022-08-04T13:04:24.608Z,39.90
2022-08-04T13:07:27.406Z,40.40
2022-08-04T13:09:56.409Z,39.20
2022-08-04T13:12:32.339Z,38.80
2022-08-04T13:15:18.706Z,39.00
2022-08-04T13:18:00.199Z,39.90
2022-08-04T13:20:34.231Z,41.10
2022-08-04T13:23:14.615Z,42.10
2022-08-04T13:26:45.196Z,41.90
2022-08-04T13:28:43.229Z,41.40
2022-08-04T13:31:23.241Z,41.00
2022-08-04T13:33:54.817Z,41.80
2022-08-04T13:36:26.843Z,42.20
2022-08-04T13:38:57.745Z,42.60
2022-08-04T13:41:31.122Z,41.90
2022-08-04T13:44:17.468Z,40.60
2022-08-04T13:47:02.365Z,40.70
2022-08-04T13:49:42.422Z,41.50
2022-08-04T13:52:25.185Z,41.60
2022-08-04T13:54:53.774Z,40.60
2022-08-04T13:57:31.395Z,39.30
2022-08-04T14:00:09.083Z,39.00
2022-08-04T14:02:44.574Z,39.00
2022-08-04T14:05:25.630Z,39.30
2022-08-04T14:08:07.608Z,39.60
2022-08-04T14:10:36.216Z,40.50
2022-08-04T14:13:06.220Z,41.00
2022-08-04T14:16:02.009Z,40.80
2022-08-04T14:18:32.872Z,41.50
2022-08-04T14:21:09.606Z,40.00
2022-08-04T14:23:54.044Z,38.80
2022-08-04T14:26:34.145Z,39.00
2022-08-04T14:29:27.251Z,39.70
2022-08-04T14:32:13.945Z,41.00
2022-08-04T14:34:45.090Z,41.60
2022-08-04T14:37:19.722Z,40.90
2022-08-04T14:40:18.954Z,39.90
2022-08-04T14:42:55.831Z,38.90
2022-08-04T14:45:35.693Z,38.20
2022-08-04T14:48:08.536Z,37.80
2022-08-04T14:50:44.128Z,37.60
2022-08-04T14:53:20.387Z,37.60
2022-08-04T14:55:56.524Z,37.50
2022-08-04T14:58:34.858Z,37.50
2022-08-04T15:01:10.699Z,37.40
2022-08-04T15:03:50.182Z,37.20
2022-08-04T15:06:26.134Z,36.30
2022-08-04T15:08:57.153Z,35.50
2022-08-04T15:11:25.450Z,35.00
2022-08-04T15:13:55.507Z,34.70
2022-08-04T15:16:25.588Z,34.60
2022-08-04T15:18:54.915Z,34.50
2022-08-04T15:21:28.858Z,34.40
2022-08-04T15:23:57.713Z,34.20
2022-08-04T15:26:47.892Z,33.90
2022-08-04T15:29:20.786Z,33.70
2022-08-04T15:32:05.697Z,33.60
2022-08-04T15:34:50.654Z,33.50
2022-08-04T15:37:45.701Z,33.40
2022-08-04T15:40:45.769Z,33.40
2022-08-04T15:43:47.260Z,33.40
2022-08-04T15:47:05.793Z,33.40
2022-08-04T15:49:34.819Z,33.40
2022-08-04T15:52:11.816Z,33.40
2022-08-04T15:54:42.322Z,33.30
2022-08-04T15:57:10.665Z,33.20
2022-08-04T16:00:02.119Z,33.10
2022-08-04T16:02:41.006Z,33.10
2022-08-04T16:05:18.240Z,33.10
2022-08-04T16:08:08.092Z,33.00
2022-08-04T16:10:41.649Z,33.00
2022-08-04T16:13:15.474Z,32.90
2022-08-04T16:15:55.116Z,32.80
2022-08-04T16:18:31.475Z,32.80
2022-08-04T16:21:03.916Z,32.70
2022-08-04T16:23:55.869Z,32.70
2022-08-04T16:26:45.822Z,32.70
2022-08-04T16:29:23.216Z,32.60
2022-08-04T16:32:10.651Z,32.50
2022-08-04T16:34:55.140Z,32.50
2022-08-04T16:37:39.995Z,32.30
2022-08-04T16:40:43.747Z,32.30
2022-08-04T16:43:13.860Z,32.00
2022-08-04T16:45:58.872Z,31.90
2022-08-04T16:48:38.019Z,31.90
2022-08-04T16:51:09.986Z,31.90
2022-08-04T16:54:04.215Z,31.70
2022-08-04T16:56:35.528Z,31.60
2022-08-04T16:59:12.091Z,31.50
2022-08-04T17:01:52.503Z,31.50
2022-08-04T17:04:34.930Z,31.40
2022-08-04T17:07:05.735Z,31.30
2022-08-04T17:09:33.655Z,31.30
2022-08-04T17:12:02.164Z,31.20
2022-08-04T17:14:31.407Z,31.20
2022-08-04T17:17:01.986Z,31.10
2022-08-04T17:19:30.779Z,31.00
2022-08-04T17:22:07.551Z,30.80
2022-08-04T17:24:40.668Z,30.70
2022-08-04T17:28:08.477Z,30.60
2022-08-04T17:29:59.295Z,30.30
2022-08-04T17:32:27.587Z,30.10
2022-08-04T17:34:59.859Z,30.00
2022-08-04T17:37:52.121Z,29.80
2022-08-04T17:40:22.448Z,29.60
2022-08-04T17:44:01.606Z,29.50
2022-08-04T17:46:31.106Z,29.20
2022-08-04T17:49:06.553Z,29.10
2022-08-04T17:52:05.862Z,29.00
2022-08-04T17:54:40.550Z,28.80
2022-08-04T17:57:15.529Z,28.60
2022-08-04T17:59:55.681Z,28.40
2022-08-04T18:02:32.210Z,28.20
2022-08-04T18:05:07.725Z,28.10
2022-08-04T18:08:46.344Z,28.00
2022-08-04T18:10:55.630Z,27.80
2022-08-04T18:13:28.368Z,27.60
2022-08-04T18:16:05.615Z,27.50
2022-08-04T18:18:35.365Z,27.30
2022-08-04T18:21:06.681Z,27.20
2022-08-04T18:23:50.338Z,27.00
2022-08-04T18:26:23.906Z,26.90
2022-08-04T18:28:51.374Z,26.70
2022-08-04T18:31:19.321Z,26.50
2022-08-04T18:33:59.034Z,26.40
2022-08-04T18:36:36.479Z,26.20
2022-08-04T18:39:16.107Z,26.10
2022-08-04T18:42:02.466Z,25.90
2022-08-04T18:44:52.358Z,25.80
2022-08-04T18:47:29.786Z,25.70
2022-08-04T18:50:59.886Z,25.60
2022-08-04T18:52:45.958Z,25.40
2022-08-04T18:55:56.208Z,25.20
2022-08-04T18:58:07.023Z,25.10
2022-08-04T19:00:45.788Z,24.90
2022-08-04T19:06:02.618Z,24.70
2022-08-04T19:08:34.809Z,24.50
2022-08-04T19:11:37.082Z,24.40
2022-08-04T19:13:54.735Z,24.40
2022-08-04T19:16:28.375Z,24.30
2022-08-04T19:18:57.667Z,24.30
2022-08-04T19:22:00.607Z,24.20
2022-08-04T19:24:28.103Z,24.10
2022-08-04T19:27:07.197Z,24.10
2022-08-04T19:29:44.272Z,24.00
2022-08-04T19:32:16.130Z,23.90
2022-08-04T19:34:47.371Z,23.90
2022-08-04T19:37:56.746Z,23.80
2022-08-04T19:40:07.426Z,23.70
2022-08-04T19:42:35.500Z,23.60
2022-08-04T19:45:04.424Z,23.50
2022-08-04T19:48:16.371Z,23.40
2022-08-04T19:50:20.219Z,23.30
2022-08-04T19:52:52.959Z,23.30
2022-08-04T19:55:37.081Z,23.40
2022-08-04T19:58:08.414Z,23.50
2022-08-04T20:00:37.710Z,23.60
2022-08-04T20:03:11.845Z,23.60
2022-08-04T20:05:53.906Z,23.70
2022-08-04T20:08:26.806Z,23.60
2022-08-04T20:10:56.427Z,23.60
2022-08-04T20:13:37.025Z,23.50
2022-08-04T20:16:26.198Z,23.50
2022-08-04T20:18:56.801Z,23.40
2022-08-04T20:21:36.569Z,23.40
2022-08-04T20:24:37.683Z,23.30
2022-08-04T20:27:04.921Z,23.20
2022-08-04T20:29:40.114Z,23.10
2022-08-04T20:32:26.783Z,23.10
2022-08-04T20:34:56.529Z,23.00
2022-08-04T20:37:55.401Z,22.90
2022-08-04T20:40:14.740Z,22.70
2022-08-04T20:42:44.866Z,22.60
2022-08-04T20:45:16.694Z,22.40
2022-08-04T20:47:46.040Z,22.30
2022-08-04T20:50:29.887Z,22.20
2022-08-04T20:52:59.589Z,22.20
2022-08-04T20:55:29.623Z,22.10
2022-08-04T20:58:02.723Z,22.10
2022-08-04T21:00:34.722Z,22.00
2022-08-04T21:03:06.261Z,21.80
2022-08-04T21:05:35.237Z,21.60
2022-08-04T21:08:05.096Z,21.40
2022-08-04T21:10:32.277Z,21.30
2022-08-04T21:12:59.306Z,21.20
2022-08-04T21:15:58.360Z,21.10
2022-08-04T21:18:16.803Z,21.00
2022-08-04T21:20:44.262Z,21.00
2022-08-04T21:23:15.671Z,21.00
2022-08-04T21:25:45.562Z,21.10
2022-08-04T21:28:20.267Z,21.20
2022-08-04T21:30:54.138Z,21.10
2022-08-04T21:33:50.105Z,21.10
2022-08-04T21:36:13.867Z,21.00
2022-08-04T21:38:41.960Z,20.90
2022-08-04T21:41:24.614Z,20.80
2022-08-04T21:43:55.614Z,20.70
2022-08-04T21:46:23.581Z,20.70
2022-08-04T21:48:51.820Z,20.60
2022-08-04T21:51:58.510Z,20.50
2022-08-04T21:54:15.111Z,20.50
2022-08-04T21:56:51.644Z,20.40
2022-08-04T21:59:23.643Z,20.40
2022-08-04T22:02:00.164Z,20.30
2022-08-04T22:04:29.537Z,20.30
2022-08-04T22:06:57.270Z,20.40
2022-08-04T22:09:24.198Z,20.50
2022-08-04T22:11:52.105Z,20.50
2022-08-04T22:14:27.407Z,20.50
2022-08-04T22:16:58.659Z,20.40
2022-08-04T22:19:49.749Z,20.30
2022-08-04T22:22:25.908Z,20.20
2022-08-04T22:24:58.743Z,20.10
2022-08-04T22:27:47.606Z,20.00
2022-08-04T22:30:17.137Z,19.90
2022-08-04T22:32:50.476Z,19.90
2022-08-04T22:35:42.721Z,20.00
2022-08-04T22:38:24.031Z,20.00
2022-08-04T22:41:03.976Z,20.00
2022-08-04T22:43:34.690Z,20.00
2022-08-04T22:46:06.326Z,20.00
2022-08-04T22:48:37.133Z,20.00
2022-08-04T22:51:07.054Z,20.10
2022-08-04T22:53:34.712Z,20.10
2022-08-04T22:56:09.820Z,20.00
2022-08-04T22:58:45.331Z,19.90
2022-08-04T23:01:15.496Z,19.70
2022-08-04T23:03:55.988Z,19.60
2022-08-04T23:06:28.703Z,19.50
2022-08-04T23:08:57.845Z,19.50
2022-08-04T23:11:35.201Z,19.50
2022-08-04T23:14:07.775Z,19.50
2022-08-04T23:16:40.718Z,19.50
2022-08-04T23:19:15.410Z,19.50
2022-08-04T23:21:47.498Z,19.50
2022-08-04T23:24:15.319Z,19.40
2022-08-04T23:26:46.004Z,19.30
2022-08-04T23:29:13.291Z,19.20
2022-08-04T23:31:41.041Z,19.10
2022-08-04T23:34:12.298Z,19.00
2022-08-04T23:36:41.032Z,19.00
2022-08-04T23:39:10.706Z,19.00
2022-08-04T23:41:53.659Z,19.00
2022-08-04T23:44:26.534Z,19.00
2022-08-04T23:47:00.126Z,19.00
2022-08-04T23:49:44.351Z,19.00
2022-08-04T23:52:27.593Z,18.90
2022-08-04T23:54:59.250Z,18.90
2022-08-04T23:57:31.579Z,18.90
